createdAt,value
2018-07-01T00:01:08.447Z,19.10
2018-07-01T00:04:33.396Z,19.00
2018-07-01T00:07:58.011Z,19.00
2018-07-01T00:11:22.432Z,18.90
2018-07-01T00:14:46.859Z,18.80
2018-07-01T00:18:11.307Z,18.70
2018-07-01T00:21:35.789Z,18.60
2018-07-01T00:25:00.204Z,18.50
2018-07-01T00:28:24.664Z,18.50
2018-07-01T00:31:49.085Z,18.50
2018-07-01T00:35:13.501Z,18.40
2018-07-01T00:38:37.974Z,18.30
2018-07-01T00:42:02.372Z,18.40
2018-07-01T00:45:26.907Z,18.30
2018-07-01T00:48:51.470Z,18.30
2018-07-01T00:52:16.019Z,18.20
2018-07-01T00:55:40.789Z,18.10
2018-07-01T00:59:05.394Z,18.10
2018-07-01T01:02:29.875Z,18.00
2018-07-01T01:05:54.507Z,17.90
2018-07-01T01:09:19.058Z,17.90
2018-07-01T01:12:43.663Z,17.90
2018-07-01T01:16:08.518Z,17.80
2018-07-01T01:19:32.962Z,17.80
2018-07-01T01:22:57.503Z,17.70
2018-07-01T01:26:22.795Z,17.60
2018-07-01T01:29:47.424Z,17.60
2018-07-01T01:33:11.904Z,17.50
2018-07-01T01:36:37.692Z,17.50
2018-07-01T01:40:02.159Z,17.50
2018-07-01T01:43:32.799Z,17.40
2018-07-01T01:47:01.023Z,17.30
2018-07-01T01:50:29.177Z,17.30
2018-07-01T01:54:00.772Z,17.20
2018-07-01T01:57:29.315Z,17.20
2018-07-01T02:03:04.580Z,17.10
2018-07-01T02:06:32.980Z,17.00
2018-07-01T02:09:57.424Z,16.90
2018-07-01T02:13:21.885Z,16.90
2018-07-01T02:16:54.032Z,16.80
2018-07-01T02:20:20.704Z,16.80
2018-07-01T02:23:48.703Z,16.70
2018-07-01T02:27:13.201Z,16.60
2018-07-01T02:30:37.709Z,16.60
2018-07-01T02:34:02.286Z,16.60
2018-07-01T02:37:26.870Z,16.60
2018-07-01T02:40:51.422Z,16.50
2018-07-01T02:47:40.083Z,16.50
2018-07-01T02:51:04.669Z,16.50
2018-07-01T02:54:29.298Z,16.50
2018-07-01T03:01:18.269Z,16.40
2018-07-01T03:04:42.718Z,16.40
2018-07-01T03:08:07.838Z,16.30
2018-07-01T03:11:32.371Z,16.20
2018-07-01T03:14:56.870Z,16.20
2018-07-01T03:18:21.425Z,16.10
2018-07-01T03:21:45.970Z,16.10
2018-07-01T03:25:10.539Z,16.00
2018-07-01T03:28:35.029Z,16.00
2018-07-01T03:31:59.837Z,16.00
2018-07-01T03:35:24.400Z,16.00
2018-07-01T03:38:48.967Z,16.00
2018-07-01T03:42:13.567Z,16.00
2018-07-01T03:45:38.491Z,16.00
2018-07-01T03:49:02.979Z,16.00
2018-07-01T03:52:27.479Z,15.90
2018-07-01T03:55:52.005Z,16.00
2018-07-01T03:59:16.558Z,15.90
2018-07-01T04:02:41.121Z,16.00
2018-07-01T04:06:06.065Z,16.00
2018-07-01T04:09:34.026Z,15.90
2018-07-01T04:12:58.491Z,15.90
2018-07-01T04:16:22.919Z,15.90
2018-07-01T04:19:47.388Z,15.90
2018-07-01T04:23:11.948Z,15.90
2018-07-01T04:26:36.358Z,15.90
2018-07-01T04:30:00.898Z,16.00
2018-07-01T04:33:25.339Z,16.00
2018-07-01T04:36:49.750Z,16.00
2018-07-01T04:40:14.202Z,16.10
2018-07-01T04:43:38.657Z,16.20
2018-07-01T04:47:03.164Z,16.20
2018-07-01T04:50:27.612Z,16.20
2018-07-01T04:53:52.039Z,16.20
2018-07-01T04:57:16.573Z,16.30
2018-07-01T05:00:41.070Z,16.40
2018-07-01T05:04:05.718Z,16.40
2018-07-01T05:07:30.280Z,16.50
2018-07-01T05:10:55.433Z,16.50
2018-07-01T05:14:19.910Z,16.50
2018-07-01T05:17:44.423Z,16.50
2018-07-01T05:21:08.877Z,16.60
2018-07-01T05:27:57.686Z,16.70
2018-07-01T05:31:22.739Z,16.80
2018-07-01T05:34:47.189Z,16.80
2018-07-01T05:38:11.733Z,16.90
2018-07-01T05:41:36.207Z,16.90
2018-07-01T05:45:00.690Z,17.00
2018-07-01T05:48:25.840Z,17.10
2018-07-01T05:51:50.284Z,17.20
2018-07-01T05:55:14.852Z,17.20
2018-07-01T05:58:39.371Z,17.30
2018-07-01T06:02:03.968Z,17.30
2018-07-01T06:05:28.578Z,17.40
2018-07-01T06:08:53.204Z,17.50
2018-07-01T06:12:17.816Z,17.50
2018-07-01T06:15:42.353Z,17.60
2018-07-01T06:19:07.314Z,17.70
2018-07-01T06:22:31.770Z,17.80
2018-07-01T06:26:02.360Z,17.90
2018-07-01T06:29:26.894Z,18.00
2018-07-01T06:32:51.417Z,18.00
2018-07-01T06:36:15.875Z,18.10
2018-07-01T06:39:40.398Z,18.20
2018-07-01T06:43:04.947Z,18.30
2018-07-01T06:46:29.559Z,18.30
2018-07-01T06:49:54.154Z,18.40
2018-07-01T06:53:19.565Z,18.50
2018-07-01T06:56:44.060Z,18.60
2018-07-01T07:00:08.585Z,18.60
2018-07-01T07:03:33.150Z,18.70
2018-07-01T07:06:57.761Z,18.80
2018-07-01T07:13:47.388Z,19.00
2018-07-01T07:17:11.914Z,19.10
2018-07-01T07:20:37.854Z,19.20
2018-07-01T07:24:02.520Z,19.30
2018-07-01T07:27:26.967Z,19.40
2018-07-01T07:30:51.439Z,19.50
2018-07-01T07:34:15.844Z,19.60
2018-07-01T07:37:41.010Z,19.80
2018-07-01T07:41:05.491Z,20.00
2018-07-01T07:44:29.975Z,20.10
2018-07-01T07:47:54.444Z,20.20
2018-07-01T07:51:18.991Z,20.30
2018-07-01T07:54:43.435Z,20.40
2018-07-01T07:58:07.844Z,20.50
2018-07-01T08:01:32.324Z,20.60
2018-07-01T08:04:57.020Z,20.70
2018-07-01T08:08:21.494Z,20.70
2018-07-01T08:11:45.985Z,20.90
2018-07-01T08:15:10.448Z,21.00
2018-07-01T08:18:35.023Z,21.20
2018-07-01T08:21:59.604Z,21.30
2018-07-01T08:25:24.964Z,21.40
2018-07-01T08:28:49.370Z,21.40
2018-07-01T08:32:13.789Z,21.40
2018-07-01T08:35:38.272Z,21.60
2018-07-01T08:39:02.840Z,21.70
2018-07-01T08:42:28.514Z,21.80
2018-07-01T08:45:53.016Z,21.90
2018-07-01T08:49:17.462Z,22.10
2018-07-01T08:52:41.885Z,22.20
2018-07-01T08:56:06.615Z,22.30
2018-07-01T08:59:31.008Z,22.40
2018-07-01T09:02:55.465Z,22.50
2018-07-01T09:06:19.838Z,22.60
2018-07-01T09:09:44.255Z,22.60
2018-07-01T09:13:08.817Z,22.70
2018-07-01T09:16:33.321Z,22.90
2018-07-01T09:19:57.774Z,23.10
2018-07-01T09:23:22.383Z,23.30
2018-07-01T09:26:47.043Z,23.50
2018-07-01T09:30:11.485Z,23.70
2018-07-01T09:33:36.049Z,23.80
2018-07-01T09:37:00.567Z,23.90
2018-07-01T09:40:25.081Z,24.10
2018-07-01T09:43:49.620Z,24.20
2018-07-01T09:47:14.215Z,24.50
2018-07-01T09:50:38.787Z,24.80
2018-07-01T09:54:03.919Z,25.00
2018-07-01T09:57:28.368Z,25.20
2018-07-01T10:00:52.886Z,25.20
2018-07-01T10:04:17.448Z,25.30
2018-07-01T10:07:41.844Z,25.60
2018-07-01T10:14:30.630Z,26.40
2018-07-01T10:17:55.178Z,26.90
2018-07-01T10:21:19.755Z,27.40
2018-07-01T10:24:44.260Z,27.60
2018-07-01T10:28:08.737Z,27.90
2018-07-01T10:31:33.821Z,28.10
2018-07-01T10:34:59.035Z,28.30
2018-07-01T10:38:24.238Z,28.50
2018-07-01T10:41:49.289Z,28.60
2018-07-01T10:45:15.374Z,28.60
2018-07-01T10:48:40.254Z,28.40
2018-07-01T10:52:05.157Z,28.50
2018-07-01T10:55:30.540Z,28.60
2018-07-01T10:58:55.476Z,29.10
2018-07-01T11:02:20.340Z,29.70
2018-07-01T11:05:46.879Z,29.90
2018-07-01T11:09:12.880Z,30.40
2018-07-01T11:12:37.426Z,30.90
2018-07-01T11:16:02.240Z,31.60
2018-07-01T11:19:26.694Z,32.00
2018-07-01T11:22:51.104Z,31.90
2018-07-01T11:26:16.412Z,31.50
2018-07-01T11:29:40.910Z,31.90
2018-07-01T11:33:05.368Z,32.20
2018-07-01T11:36:29.857Z,32.60
2018-07-01T11:39:54.315Z,33.00
2018-07-01T11:43:18.841Z,33.20
2018-07-01T11:46:43.305Z,33.20
2018-07-01T11:50:07.875Z,33.30
2018-07-01T11:53:32.465Z,33.60
2018-07-01T11:56:57.005Z,34.50
2018-07-01T12:00:21.552Z,34.90
2018-07-01T12:03:46.079Z,35.30
2018-07-01T12:07:10.582Z,35.50
2018-07-01T12:10:35.125Z,35.40
2018-07-01T12:13:59.676Z,35.60
2018-07-01T12:17:24.168Z,35.70
2018-07-01T12:20:48.712Z,35.50
2018-07-01T12:24:13.331Z,35.70
2018-07-01T12:27:37.835Z,36.00
2018-07-01T12:31:03.530Z,36.40
2018-07-01T12:34:27.938Z,36.80
2018-07-01T12:37:52.401Z,37.50
2018-07-01T12:41:16.832Z,37.30
2018-07-01T12:44:41.231Z,37.20
2018-07-01T12:48:06.115Z,36.60
2018-07-01T12:51:30.582Z,37.40
2018-07-01T12:54:55.037Z,37.90
2018-07-01T12:58:20.349Z,38.60
2018-07-01T13:01:44.782Z,38.50
2018-07-01T13:05:09.272Z,39.10
2018-07-01T13:08:33.739Z,39.30
2018-07-01T13:11:58.243Z,39.10
2018-07-01T13:15:22.651Z,39.30
2018-07-01T13:18:47.182Z,39.50
2018-07-01T13:22:11.958Z,39.90
2018-07-01T13:25:36.483Z,39.60
2018-07-01T13:29:01.192Z,39.50
2018-07-01T13:32:25.599Z,40.10
2018-07-01T13:39:14.235Z,40.80
2018-07-01T13:42:38.812Z,41.00
2018-07-01T13:46:03.735Z,41.00
2018-07-01T13:49:29.308Z,41.10
2018-07-01T13:52:53.990Z,42.00
2018-07-01T13:56:18.411Z,42.10
2018-07-01T13:59:43.042Z,41.90
2018-07-01T14:03:08.233Z,41.90
2018-07-01T14:06:32.784Z,42.20
2018-07-01T14:09:57.705Z,42.90
2018-07-01T14:13:22.162Z,42.80
2018-07-01T14:16:47.122Z,43.60
2018-07-01T14:20:12.119Z,42.70
2018-07-01T14:23:36.770Z,42.60
2018-07-01T14:27:01.363Z,43.10
2018-07-01T14:30:25.709Z,43.40
2018-07-01T14:33:50.164Z,44.00
2018-07-01T14:37:14.706Z,44.90
2018-07-01T14:40:39.295Z,45.20
2018-07-01T14:44:05.381Z,45.00
2018-07-01T14:47:30.739Z,45.10
2018-07-01T14:50:55.454Z,45.70
2018-07-01T14:57:44.298Z,46.30
2018-07-01T15:01:09.868Z,46.00
2018-07-01T15:04:35.119Z,45.80
2018-07-01T15:07:59.591Z,46.40
2018-07-01T15:11:24.150Z,46.70
2018-07-01T15:14:48.607Z,47.10
2018-07-01T15:18:13.340Z,47.00
2018-07-01T15:21:38.091Z,47.30
2018-07-01T15:25:02.575Z,47.30
2018-07-01T15:28:27.538Z,47.30
2018-07-01T15:31:52.107Z,47.50
2018-07-01T15:35:16.648Z,47.50
2018-07-01T15:38:41.533Z,47.30
2018-07-01T15:42:06.394Z,46.60
2018-07-01T15:45:30.970Z,47.00
2018-07-01T15:48:55.594Z,47.30
2018-07-01T15:52:20.384Z,47.10
2018-07-01T15:55:44.914Z,47.20
2018-07-01T15:59:10.299Z,47.10
2018-07-01T16:02:34.981Z,46.80
2018-07-01T16:05:59.718Z,46.70
2018-07-01T16:09:24.307Z,46.50
2018-07-01T16:12:49.055Z,47.10
2018-07-01T16:16:13.546Z,47.10
2018-07-01T16:19:38.090Z,47.20
2018-07-01T16:23:02.737Z,46.70
2018-07-01T16:26:32.544Z,46.70
2018-07-01T16:29:57.269Z,44.70
2018-07-01T16:33:21.830Z,41.60
2018-07-01T16:36:46.524Z,39.20
2018-07-01T16:40:11.076Z,37.80
2018-07-01T16:43:35.627Z,39.10
2018-07-01T16:47:00.200Z,40.50
2018-07-01T16:50:24.825Z,41.10
2018-07-01T16:53:50.987Z,41.20
2018-07-01T16:57:16.824Z,41.70
2018-07-01T17:00:41.286Z,41.50
2018-07-01T17:04:05.835Z,40.90
2018-07-01T17:11:01.914Z,39.30
2018-07-01T17:14:27.617Z,36.80
2018-07-01T17:17:52.042Z,34.90
2018-07-01T17:21:17.280Z,33.30
2018-07-01T17:24:43.389Z,32.30
2018-07-01T17:28:07.889Z,31.50
2018-07-01T17:31:37.570Z,31.00
2018-07-01T17:35:01.983Z,30.50
2018-07-01T17:38:26.594Z,30.00
2018-07-01T17:41:51.321Z,29.70
2018-07-01T17:45:15.847Z,29.20
2018-07-01T17:48:40.427Z,28.70
2018-07-01T17:52:04.931Z,28.60
2018-07-01T17:55:29.447Z,28.40
2018-07-01T17:58:54.630Z,28.20
2018-07-01T18:02:19.317Z,28.00
2018-07-01T18:05:43.844Z,27.90
2018-07-01T18:09:09.647Z,27.70
2018-07-01T18:12:34.113Z,27.50
2018-07-01T18:15:58.576Z,27.30
2018-07-01T18:19:23.000Z,27.30
2018-07-01T18:23:18.241Z,27.20
2018-07-01T18:26:12.097Z,26.90
2018-07-01T18:29:36.489Z,26.80
2018-07-01T18:33:00.916Z,26.70
2018-07-01T18:36:25.993Z,26.50
2018-07-01T18:39:50.440Z,26.50
2018-07-01T18:43:15.724Z,26.40
2018-07-01T18:46:41.295Z,26.40
2018-07-01T18:50:07.277Z,26.20
2018-07-01T18:53:33.232Z,26.10
2018-07-01T18:56:58.541Z,26.00
2018-07-01T19:00:24.186Z,25.70
2018-07-01T19:03:49.121Z,25.50
2018-07-01T19:07:13.682Z,25.40
2018-07-01T19:10:41.062Z,25.40
2018-07-01T19:14:07.314Z,25.30
2018-07-01T19:17:31.974Z,25.20
2018-07-01T19:20:56.603Z,25.00
2018-07-01T19:24:22.079Z,24.90
2018-07-01T19:27:46.523Z,24.80
2018-07-01T19:31:10.991Z,24.60
2018-07-01T19:34:37.956Z,24.50
2018-07-01T19:38:02.700Z,24.40
2018-07-01T19:41:28.759Z,24.30
2018-07-01T19:44:53.865Z,24.20
2018-07-01T19:48:20.832Z,24.10
2018-07-01T19:51:46.129Z,24.00
2018-07-01T19:55:11.566Z,23.90
2018-07-01T19:58:37.596Z,23.80
2018-07-01T20:02:02.772Z,23.70
2018-07-01T20:05:28.074Z,23.60
2018-07-01T20:08:53.268Z,23.60
2018-07-01T20:12:20.078Z,23.40
2018-07-01T20:19:08.897Z,23.30
2018-07-01T20:22:33.996Z,23.20
2018-07-01T20:25:59.481Z,23.10
2018-07-01T20:29:25.051Z,23.10
2018-07-01T20:32:51.210Z,23.00
2018-07-01T20:36:16.552Z,22.90
2018-07-01T20:39:41.004Z,22.80
2018-07-01T20:43:05.815Z,22.80
2018-07-01T20:46:30.969Z,22.70
2018-07-01T20:49:56.384Z,22.60
2018-07-01T20:53:20.987Z,22.50
2018-07-01T20:56:45.629Z,22.40
2018-07-01T21:00:10.158Z,22.30
2018-07-01T21:03:34.615Z,22.10
2018-07-01T21:06:59.093Z,22.00
2018-07-01T21:10:23.569Z,21.80
2018-07-01T21:13:47.964Z,21.70
2018-07-01T21:17:12.398Z,21.60
2018-07-01T21:20:36.945Z,21.40
2018-07-01T21:24:01.485Z,21.40
2018-07-01T21:27:25.924Z,21.30
2018-07-01T21:30:50.583Z,21.20
2018-07-01T21:34:15.080Z,21.10
2018-07-01T21:37:39.642Z,21.00
2018-07-01T21:41:04.070Z,20.90
2018-07-01T21:44:30.477Z,20.80
2018-07-01T21:47:54.967Z,20.80
2018-07-01T21:51:19.606Z,20.70
2018-07-01T21:54:44.082Z,20.60
2018-07-01T21:58:08.593Z,20.60
2018-07-01T22:01:33.030Z,20.50
2018-07-01T22:04:57.499Z,20.40
2018-07-01T22:08:21.980Z,20.40
2018-07-01T22:12:04.236Z,20.30
2018-07-01T22:15:45.615Z,20.30
2018-07-01T22:19:10.180Z,20.20
2018-07-01T22:22:34.735Z,20.10
2018-07-01T22:25:59.316Z,20.00
2018-07-01T22:29:24.005Z,19.90
2018-07-01T22:32:49.146Z,19.90
2018-07-01T22:36:13.736Z,19.80
2018-07-01T22:39:38.988Z,19.70
2018-07-01T22:43:03.507Z,19.60
2018-07-01T22:46:28.000Z,19.60
2018-07-01T22:49:52.566Z,19.50
2018-07-01T22:53:17.297Z,19.30
2018-07-01T22:56:41.838Z,19.20
2018-07-01T23:00:07.036Z,19.10
2018-07-01T23:03:32.603Z,19.00
2018-07-01T23:06:57.022Z,18.90
2018-07-01T23:10:22.710Z,18.90
2018-07-01T23:13:47.178Z,18.80
2018-07-01T23:17:11.686Z,18.70
2018-07-01T23:20:36.138Z,18.70
2018-07-01T23:24:00.570Z,18.60
2018-07-01T23:27:25.016Z,18.50
2018-07-01T23:30:49.450Z,18.50
2018-07-01T23:34:13.904Z,18.50
2018-07-01T23:37:38.744Z,18.40
2018-07-01T23:41:03.209Z,18.40
2018-07-01T23:44:27.642Z,18.30
2018-07-01T23:47:52.129Z,18.20
2018-07-01T23:51:16.571Z,18.10
2018-07-01T23:54:41.004Z,18.00
2018-07-01T23:58:05.641Z,17.90
